NYN weather

Nyngan Airport
New South Wales, Australia

Public forecast

Using degrees Celsius for public forecast. Weather courtesy of forecast.io.

Closest aviation weather report (METAR) to Nyngan Airport

Closest report is Coonamble Airport, 69.2 nm (128.1 km) ENE. Retrieved 2019/10/19 13:00 UTC (31 minutes ago):

YCNM 191300Z AUTO 19018G28KT //// // ////// 18/01 Q1019

Closest aviation forecast (TAF) to Nyngan Airport

Closest forecast is Dubbo City Regional Airport, 80.6 nm (149.2 km) ESE. Retrieved 2019/10/19 12:37 UTC (54 minutes ago):

TAF YSDU 191112Z 1912/2006 20013KT CAVOK FM191800 17008KT CAVOK FM200000 19013KT CAVOK